Time;durP1;ratioP1;P1;durP2;ratioP2;P2;SDS_P1;SDS_P2;PMS_P1;PMS_P2;Temp;Humidity;BMP_temperature;BMP_pressure;BME280_temperature;BME280_humidity;BME280_pressure;Samples;Min_cycle;Max_cycle;Signal;HPM_P1;HPM_P2
2022/06/06 00:02:06;;;;;;;4.30;4.10;;;;;;;18.55;80.99;100226.19;5052673;28;20230;-73
2022/06/06 00:04:32;;;;;;;4.87;4.57;;;;;;;18.50;80.92;100232.66;5052663;28;20231;-72
2022/06/06 00:07:00;;;;;;;4.37;4.07;;;;;;;18.42;81.14;100222.50;5052161;28;20670;-73
2022/06/06 00:09:28;;;;;;;4.23;4.03;;;;;;;18.34;81.90;100201.78;5051416;28;20204;-72
2022/06/06 00:11:55;;;;;;;4.30;4.10;;;;;;;18.38;81.47;100208.59;5052126;28;20200;-72
2022/06/06 00:14:22;;;;;;;3.97;3.73;;;;;;;18.33;80.97;100229.13;5052216;28;20298;-72
2022/06/06 00:16:48;;;;;;;4.53;4.23;;;;;;;18.35;80.68;100234.34;5051885;28;20254;-73
2022/06/06 00:19:15;;;;;;;4.07;3.77;;;;;;;18.21;80.34;100237.72;5051734;28;20251;-72
2022/06/06 00:21:42;;;;;;;4.23;3.97;;;;;;;18.22;80.59;100234.16;5051667;28;20228;-73
2022/06/06 00:24:12;;;;;;;4.57;4.33;;;;;;;18.30;81.38;100202.03;5042873;28;20546;-72
2022/06/06 00:26:38;;;;;;;4.30;4.00;;;;;;;18.29;81.04;100217.03;5051829;28;20685;-72
2022/06/06 00:29:07;;;;;;;3.97;3.77;;;;;;;18.28;81.43;100225.06;5051044;28;20617;-72
2022/06/06 00:37:05;;;;;;;4.37;4.10;;;;;;;18.10;80.63;100233.03;5051459;28;20210;-72
2022/06/06 00:39:33;;;;;;;3.87;3.67;;;;;;;17.96;80.08;100260.19;5051528;28;20207;-72
2022/06/06 00:42:00;;;;;;;4.03;3.73;;;;;;;17.97;80.26;100246.03;5051452;28;20220;-72
2022/06/06 00:44:30;;;;;;;4.33;4.03;;;;;;;18.04;80.33;100262.41;5051451;28;20706;-72
2022/06/06 00:47:13;;;;;;;4.17;3.97;;;;;;;18.06;80.73;100248.19;5051711;28;20265;-72
2022/06/06 00:49:43;;;;;;;3.87;3.63;;;;;;;18.06;79.97;100261.41;5051475;28;20195;-72
2022/06/06 00:52:12;;;;;;;3.80;3.60;;;;;;;18.03;79.24;100292.38;5051304;28;20204;-72
2022/06/06 00:54:42;;;;;;;3.87;3.57;;;;;;;18.05;79.18;100295.81;5051314;28;20220;-73
2022/06/06 00:57:13;;;;;;;3.73;3.53;;;;;;;18.01;78.97;100310.94;5050509;28;20287;-72
2022/06/06 00:59:41;;;;;;;3.37;3.17;;;;;;;18.12;78.78;100301.63;5051082;28;20680;-72
2022/06/06 01:02:10;;;;;;;3.80;3.60;;;;;;;17.99;78.42;100311.97;5051349;28;20609;-72
2022/06/06 01:04:39;;;;;;;3.80;3.60;;;;;;;18.01;78.26;100297.75;5051465;28;20228;-73
2022/06/06 01:07:06;;;;;;;3.83;3.57;;;;;;;17.91;77.39;100336.13;5051013;28;20238;-72
2022/06/06 01:09:33;;;;;;;3.97;3.77;;;;;;;18.01;77.93;100320.66;5051325;28;20204;-72
2022/06/06 01:12:05;;;;;;;4.13;3.93;;;;;;;17.98;77.59;100332.25;5051574;28;20244;-72
2022/06/06 01:14:35;;;;;;;3.90;3.60;;;;;;;18.00;77.45;100330.41;5043552;28;20232;-72
2022/06/06 01:17:05;;;;;;;3.60;3.40;;;;;;;18.04;77.48;100334.59;5051488;28;20250;-72
2022/06/06 01:19:55;;;;;;;4.03;3.73;;;;;;;18.06;77.40;100334.50;5050898;28;20225;-72
2022/06/06 01:22:56;;;;;;;4.00;3.80;;;;;;;18.03;77.90;100338.13;5051288;28;20228;-72
2022/06/06 01:25:48;;;;;;;4.37;4.10;;;;;;;17.94;77.63;100336.00;5051172;28;20779;-72
2022/06/06 01:28:39;;;;;;;4.43;4.23;;;;;;;17.95;77.09;100356.16;5051067;28;20291;-72
2022/06/06 01:31:10;;;;;;;4.90;4.50;;;;;;;17.98;77.71;100336.69;5050756;28;20532;-72
2022/06/06 01:33:51;;;;;;;4.60;4.27;;;;;;;17.99;78.01;100323.38;5052230;28;20203;-72
2022/06/06 01:36:18;;;;;;;4.30;4.10;;;;;;;17.96;77.86;100328.00;5053458;28;20595;-72
2022/06/06 01:38:45;;;;;;;4.13;3.93;;;;;;;17.97;77.93;100327.03;5054831;28;20196;-73
2022/06/06 01:41:15;;;;;;;4.63;4.23;;;;;;;17.73;76.81;100352.88;5054955;28;20224;-73
2022/06/06 01:43:49;;;;;;;4.03;3.83;;;;;;;17.77;77.74;100339.44;5054919;28;20211;-73
2022/06/06 01:46:22;;;;;;;5.00;4.57;;;;;;;17.86;77.80;100323.19;5054983;28;20223;-73
2022/06/06 01:48:50;;;;;;;4.70;4.40;;;;;;;17.86;77.44;100348.75;5046781;28;20210;-72
2022/06/06 01:51:22;;;;;;;5.23;4.83;;;;;;;17.88;77.20;100336.31;5054934;28;20200;-72
2022/06/06 01:53:48;;;;;;;6.20;5.80;;;;;;;17.87;77.23;100345.16;5054501;28;20236;-73
2022/06/06 01:56:18;;;;;;;6.33;5.93;;;;;;;17.91;77.10;100356.41;5054851;28;20314;-73
2022/06/06 01:58:46;;;;;;;6.93;6.40;;;;;;;17.94;77.33;100353.59;5053886;28;20207;-72
2022/06/06 02:01:12;;;;;;;6.73;6.23;;;;;;;17.99;77.13;100352.44;5054561;28;20255;-73
2022/06/06 02:03:39;;;;;;;7.00;6.60;;;;;;;18.00;77.22;100358.59;5054639;28;20207;-73
2022/06/06 02:06:06;;;;;;;7.27;6.77;;;;;;;17.99;78.08;100333.94;5054539;28;20711;-73
2022/06/06 02:08:32;;;;;;;7.13;6.63;;;;;;;18.01;77.76;100318.88;5054173;28;20211;-72
2022/06/06 02:10:59;;;;;;;7.63;7.13;;;;;;;18.03;78.32;100308.25;5054458;28;20287;-72
2022/06/06 02:13:26;;;;;;;6.90;6.40;;;;;;;17.90;77.53;100331.81;5054849;28;20207;-73
2022/06/06 02:15:54;;;;;;;8.00;7.40;;;;;;;17.97;78.17;100327.03;5054429;28;20230;-73
2022/06/06 02:18:22;;;;;;;7.03;6.53;;;;;;;17.88;77.67;100336.31;5054615;28;20200;-72
2022/06/06 02:20:49;;;;;;;7.70;7.20;;;;;;;17.96;77.84;100326.19;5054176;28;20235;-72
2022/06/06 02:23:15;;;;;;;7.53;7.03;;;;;;;17.88;77.48;100323.09;5053995;28;20282;-72
2022/06/06 02:25:42;;;;;;;6.80;6.30;;;;;;;17.93;77.45;100331.63;5053912;28;20217;-72
2022/06/06 02:28:09;;;;;;;7.17;6.67;;;;;;;17.98;77.60;100334.06;5054370;28;20619;-72
2022/06/06 02:30:37;;;;;;;6.90;6.50;;;;;;;18.03;77.40;100332.00;5053729;28;20572;-72
2022/06/06 02:33:05;;;;;;;6.93;6.53;;;;;;;18.03;77.46;100338.13;5048447;28;20204;-72
2022/06/06 02:35:34;;;;;;;7.80;6.87;;;;;;;18.01;77.92;100324.16;5053854;28;20270;-72
2022/06/06 02:38:01;;;;;;;7.50;6.83;;;;;;;18.06;77.90;100329.22;5053700;28;20204;-72
2022/06/06 02:40:30;;;;;;;6.93;6.33;;;;;;;18.09;77.76;100328.19;5053979;28;20204;-72
2022/06/06 02:42:57;;;;;;;5.87;5.43;;;;;;;18.03;77.82;100334.66;5053670;28;20234;-72
2022/06/06 02:45:24;;;;;;;6.27;5.93;;;;;;;18.04;77.25;100344.31;5054031;28;20330;-72
2022/06/06 02:47:53;;;;;;;6.57;6.07;;;;;;;18.06;77.79;100329.22;5052794;28;20208;-72
2022/06/06 02:50:25;;;;;;;6.70;6.00;;;;;;;18.05;77.90;100332.78;5053309;28;20200;-72
2022/06/06 02:52:51;;;;;;;6.47;6.07;;;;;;;18.05;78.09;100331.00;5053420;28;20200;-72
2022/06/06 02:55:18;;;;;;;6.50;6.10;;;;;;;18.03;77.79;100342.56;5053672;28;20277;-73
2022/06/06 02:57:47;;;;;;;7.27;6.73;;;;;;;18.02;78.04;100327.69;5052492;28;20708;-72
2022/06/06 03:00:19;;;;;;;7.20;6.70;;;;;;;18.05;78.51;100317.78;5050119;28;20728;-72
2022/06/06 03:02:45;;;;;;;6.20;5.80;;;;;;;18.04;78.66;100308.16;5053057;28;20251;-73
2022/06/06 03:05:12;;;;;;;6.57;6.17;;;;;;;18.02;78.29;100314.47;5052140;28;20862;-72
2022/06/06 03:07:53;;;;;;;6.47;6.07;;;;;;;17.99;78.15;100333.94;5053149;28;20199;-73
2022/06/06 03:10:27;;;;;;;7.73;7.13;;;;;;;17.91;79.48;100308.88;5051068;28;20207;-72
2022/06/06 03:13:06;;;;;;;7.13;6.67;;;;;;;17.88;78.79;100309.03;5050239;28;20651;-72
2022/06/06 03:21:45;;;;;;;7.90;7.20;;;;;;;17.86;78.52;100309.97;5050185;28;20339;-73
2022/06/06 03:24:26;;;;;;;8.43;7.93;;;;;;;17.67;79.49;100302.09;5052153;28;20599;-72
2022/06/06 03:27:07;;;;;;;9.17;8.57;;;;;;;17.76;79.60;100300.78;5052416;28;20265;-72
2022/06/06 03:29:49;;;;;;;9.40;8.77;;;;;;;17.78;79.34;100304.19;5049880;28;20203;-72
2022/06/06 03:32:26;;;;;;;9.47;8.87;;;;;;;17.77;79.47;100304.28;5052293;28;20196;-72
2022/06/06 03:35:00;;;;;;;9.17;8.57;;;;;;;17.70;79.96;100293.19;5052737;28;20216;-72
2022/06/06 03:37:33;;;;;;;8.60;8.03;;;;;;;17.77;80.53;100277.88;5051511;28;20187;-72
2022/06/06 03:40:08;;;;;;;8.03;7.53;;;;;;;17.82;79.83;100295.19;5050279;28;20259;-72
2022/06/06 03:42:38;;;;;;;7.83;7.30;;;;;;;17.86;80.00;100288.84;5049506;28;20224;-72
2022/06/06 03:45:16;;;;;;;7.07;6.57;;;;;;;17.91;79.68;100306.25;5051921;28;20879;-72
2022/06/06 03:47:53;;;;;;;6.27;5.87;;;;;;;17.89;79.26;100319.50;5050993;28;20205;-72
2022/06/06 03:50:30;;;;;;;6.67;6.17;;;;;;;17.89;79.55;100311.59;5052028;28;20197;-72
2022/06/06 03:53:03;;;;;;;6.70;6.10;;;;;;;17.69;79.76;100312.59;5050084;28;20188;-72
2022/06/06 03:55:42;;;;;;;6.70;6.30;;;;;;;17.70;80.90;100274.72;5051891;28;20220;-72
2022/06/06 03:58:12;;;;;;;6.70;6.30;;;;;;;17.62;79.83;100306.78;5051206;28;20207;-72
2022/06/06 04:00:40;;;;;;;7.10;6.33;;;;;;;17.72;80.23;100296.59;5049919;28;20213;-72
2022/06/06 04:03:07;;;;;;;7.10;6.53;;;;;;;17.70;79.48;100319.59;5051769;28;20234;-73
2022/06/06 04:05:36;;;;;;;6.83;6.33;;;;;;;17.76;79.19;100324.56;5049419;28;20223;-73
2022/06/06 04:08:03;;;;;;;7.73;7.13;;;;;;;17.72;78.18;100361.72;5051617;28;20206;-73
2022/06/06 04:10:42;;;;;;;7.37;6.80;;;;;;;17.83;78.75;100365.56;5051190;28;20264;-73
2022/06/06 04:13:21;;;;;;;7.23;6.73;;;;;;;17.82;77.93;100379.69;5051510;28;20200;-72
2022/06/06 04:15:59;;;;;;;8.43;7.63;;;;;;;17.82;77.17;100405.25;5051090;28;20220;-73
2022/06/06 04:18:36;;;;;;;7.77;7.17;;;;;;;17.88;77.02;100419.94;5051164;28;20686;-73
2022/06/06 04:21:13;;;;;;;8.60;7.90;;;;;;;17.72;75.83;100448.84;5049173;28;20680;-73
2022/06/06 04:23:57;;;;;;;9.23;8.53;;;;;;;17.80;76.02;100452.84;5049292;28;20613;-73
2022/06/06 04:26:34;;;;;;;10.73;9.83;;;;;;;17.77;75.50;100460.06;5050692;28;20256;-73
2022/06/06 04:29:06;;;;;;;11.33;10.33;;;;;;;17.70;75.03;100480.63;5049379;28;20199;-73
2022/06/06 04:31:43;;;;;;;12.73;11.57;;;;;;;17.80;75.87;100468.69;5051553;28;20192;-73
2022/06/06 04:34:17;;;;;;;13.70;12.50;;;;;;;17.76;76.05;100448.66;5051852;28;20200;-73
2022/06/06 04:36:51;;;;;;;13.93;12.67;;;;;;;17.63;75.63;100451.00;5051517;28;20204;-72
2022/06/06 04:39:23;;;;;;;14.73;13.53;;;;;;;17.75;75.81;100456.63;5051417;28;20199;-73
2022/06/06 04:41:57;;;;;;;13.37;12.27;;;;;;;17.66;75.39;100465.88;5051682;28;20678;-73
2022/06/06 04:44:32;;;;;;;13.17;12.07;;;;;;;17.79;75.50;100469.59;5051140;28;20227;-73
2022/06/06 04:47:03;;;;;;;12.73;11.53;;;;;;;17.59;75.04;100490.84;5052012;28;20253;-73
2022/06/06 04:49:32;;;;;;;12.97;11.97;;;;;;;17.51;75.06;100487.69;5051208;28;20231;-73
2022/06/06 04:52:00;;;;;;;12.60;11.43;;;;;;;17.49;75.06;100485.13;5051905;28;20211;-73
2022/06/06 04:54:28;;;;;;;11.83;10.93;;;;;;;17.57;75.13;100490.91;5051435;28;20614;-73
2022/06/06 04:56:59;;;;;;;12.27;11.20;;;;;;;17.63;75.30;100484.47;5051473;28;20200;-73
2022/06/06 04:59:26;;;;;;;12.40;11.43;;;;;;;17.55;74.53;100505.09;5051349;28;20229;-73
2022/06/06 05:01:54;;;;;;;10.50;9.70;;;;;;;17.58;74.00;100526.94;5051671;28;20207;-73
2022/06/06 05:04:21;;;;;;;11.93;11.03;;;;;;;17.50;74.22;100536.97;5051037;28;20223;-72
2022/06/06 05:07:19;;;;;;;11.07;10.17;;;;;;;17.49;74.40;100518.59;5051690;28;20197;-73
2022/06/06 05:10:21;;;;;;;11.73;10.63;;;;;;;17.49;74.89;100506.25;5050060;28;20262;-73
2022/06/06 05:13:18;;;;;;;10.97;10.07;;;;;;;17.37;74.94;100512.94;5042575;28;20739;-73
2022/06/06 05:15:59;;;;;;;11.97;10.97;;;;;;;17.44;74.98;100508.22;5050824;28;20215;-73
2022/06/06 05:18:41;;;;;;;10.63;9.73;;;;;;;17.50;74.93;100502.66;5050769;28;20204;-73
2022/06/06 05:21:24;;;;;;;10.40;9.60;;;;;;;17.64;74.66;100517.84;5050636;28;20207;-73
2022/06/06 05:24:04;;;;;;;11.57;10.60;;;;;;;17.68;74.35;100535.28;5043721;28;20207;-73
2022/06/06 05:26:45;;;;;;;10.70;9.90;;;;;;;17.94;74.15;100538.47;5051393;28;20192;-73
2022/06/06 05:29:32;;;;;;;10.97;10.17;;;;;;;17.94;73.05;100578.09;5051018;28;20208;-73
2022/06/06 05:32:16;;;;;;;10.60;9.80;;;;;;;18.01;72.88;100583.00;5044697;28;20649;-73
2022/06/06 05:34:49;;;;;;;10.93;10.03;;;;;;;18.20;73.16;100584.78;5050683;28;20705;-73
2022/06/06 05:37:31;;;;;;;12.63;11.53;;;;;;;18.10;72.04;100612.59;5051245;28;20210;-73
2022/06/06 05:40:11;;;;;;;12.77;11.77;;;;;;;18.29;73.24;100592.25;5043809;28;20596;-73
2022/06/06 05:43:02;;;;;;;11.70;10.80;;;;;;;18.38;72.99;100604.19;5050785;28;20269;-73
2022/06/06 05:45:38;;;;;;;10.97;10.17;;;;;;;18.51;72.79;100607.91;5050811;28;20638;-73
2022/06/06 05:48:19;;;;;;;12.20;11.23;;;;;;;18.65;72.90;100607.22;5051212;28;20242;-73
2022/06/06 05:50:57;;;;;;;11.03;10.00;;;;;;;18.68;71.95;100616.81;5051102;28;20208;-73
2022/06/06 05:53:43;;;;;;;10.57;9.77;;;;;;;18.62;71.63;100632.03;5050983;28;20254;-73
2022/06/06 05:56:31;;;;;;;11.93;10.93;;;;;;;18.46;71.75;100642.50;5044615;28;20729;-73
2022/06/06 05:59:19;;;;;;;13.37;12.27;;;;;;;18.35;72.11;100631.59;5050536;28;20780;-73
2022/06/06 06:02:07;;;;;;;13.50;12.30;;;;;;;18.21;72.48;100608.47;5051076;28;20261;-73
2022/06/06 06:04:58;;;;;;;12.43;11.43;;;;;;;17.92;72.87;100615.16;5050778;28;20709;-73
2022/06/06 06:07:34;;;;;;;12.73;11.53;;;;;;;17.99;73.90;100581.38;5046703;28;20196;-73
2022/06/06 06:10:09;;;;;;;14.47;13.17;;;;;;;18.17;73.91;100566.44;5050361;28;20266;-73
2022/06/06 06:13:06;;;;;;;13.77;12.60;;;;;;;18.12;73.29;100597.53;5051119;28;20229;-73
2022/06/06 06:15:36;;;;;;;13.27;12.07;;;;;;;18.17;73.58;100595.50;5050240;28;20591;-73
2022/06/06 06:18:09;;;;;;;14.40;13.07;;;;;;;18.26;73.40;100595.06;5042751;28;20631;-73
2022/06/06 06:20:42;;;;;;;13.83;12.63;;;;;;;18.42;73.46;100601.31;5050677;28;20706;-73
2022/06/06 06:23:12;;;;;;;12.40;11.40;;;;;;;18.17;72.87;100620.13;5045070;28;20692;-73
2022/06/06 06:25:41;;;;;;;13.20;12.10;;;;;;;18.27;73.32;100617.91;5054303;28;20270;-73
2022/06/06 06:28:10;;;;;;;12.80;11.80;;;;;;;18.28;74.01;100603.78;5046494;28;20204;-73
2022/06/06 06:30:48;;;;;;;11.93;10.93;;;;;;;18.34;74.13;100600.81;5054081;28;20294;-73
2022/06/06 06:33:28;;;;;;;12.43;11.30;;;;;;;18.40;74.64;100582.03;5049692;28;20208;-73
2022/06/06 06:36:04;;;;;;;11.73;10.70;;;;;;;18.43;73.99;100596.88;5054122;28;20220;-73
2022/06/06 06:38:49;;;;;;;10.43;9.63;;;;;;;18.50;73.58;100614.16;5054005;28;20218;-73
2022/06/06 06:41:26;;;;;;;10.77;9.87;;;;;;;18.48;72.58;100628.38;5046548;28;20558;-73
2022/06/06 06:44:00;;;;;;;10.43;9.63;;;;;;;18.57;72.89;100644.66;5053528;28;20224;-73
2022/06/06 06:46:32;;;;;;;10.40;9.50;;;;;;;18.61;72.99;100648.84;5054087;28;20336;-73
2022/06/06 06:49:12;;;;;;;10.20;9.40;;;;;;;18.53;73.23;100632.53;5053611;28;20211;-73
2022/06/06 06:51:49;;;;;;;9.63;8.93;;;;;;;18.32;72.86;100644.97;5053861;28;20188;-73
2022/06/06 06:54:32;;;;;;;9.60;8.80;;;;;;;18.46;73.67;100617.88;5053288;28;20258;-73
2022/06/06 06:57:25;;;;;;;9.50;8.80;;;;;;;18.66;73.80;100601.88;5053746;28;20219;-73
2022/06/06 07:00:03;;;;;;;9.23;8.50;;;;;;;18.54;72.83;100620.16;5053376;28;20200;-73
2022/06/06 07:08:36;;;;;;;8.63;7.97;;;;;;;18.62;71.78;100677.00;5053458;28;20212;-73
2022/06/06 07:11:20;;;;;;;8.60;7.90;;;;;;;18.62;72.36;100669.06;5053376;28;20208;-73
2022/06/06 07:14:03;;;;;;;8.60;7.90;;;;;;;18.67;72.96;100629.16;5052901;28;20791;-73
2022/06/06 07:16:32;;;;;;;8.33;7.63;;;;;;;18.65;71.18;100674.22;5046797;28;20196;-73
2022/06/06 07:19:03;;;;;;;8.10;7.40;;;;;;;18.56;70.66;100690.50;5052938;28;20249;-72
2022/06/06 07:21:33;;;;;;;9.00;8.30;;;;;;;18.74;71.06;100696.69;5052811;28;20208;-73
2022/06/06 07:24:03;;;;;;;8.03;7.43;;;;;;;18.62;70.21;100708.72;5052723;28;20224;-73
2022/06/06 07:26:30;;;;;;;8.33;7.70;;;;;;;18.50;70.03;100741.03;5053151;28;20208;-73
2022/06/06 07:28:56;;;;;;;9.00;8.20;;;;;;;18.52;70.36;100722.47;5052728;28;20205;-73
2022/06/06 07:31:33;;;;;;;7.33;6.73;;;;;;;18.75;70.58;100686.97;5052806;28;20208;-73
2022/06/06 07:34:13;;;;;;;7.57;7.03;;;;;;;18.79;71.23;100701.75;5052618;28;20570;-73
2022/06/06 07:36:59;;;;;;;8.73;7.93;;;;;;;18.90;71.04;100672.19;5045483;28;20258;-73
2022/06/06 07:39:39;;;;;;;8.10;7.47;;;;;;;19.01;71.41;100668.06;5052106;28;20211;-73
2022/06/06 07:42:20;;;;;;;8.30;7.60;;;;;;;19.08;71.36;100667.75;5052731;28;20252;-73
2022/06/06 07:45:09;;;;;;;8.33;7.63;;;;;;;19.15;70.34;100701.75;5052314;28;20700;-73
2022/06/06 07:48:01;;;;;;;8.63;8.00;;;;;;;19.16;70.33;100677.00;5053041;28;20205;-73
2022/06/06 07:50:33;;;;;;;8.63;7.87;;;;;;;19.13;70.04;100702.78;5052001;28;20670;-73
2022/06/06 07:53:14;;;;;;;8.07;7.40;;;;;;;19.01;70.20;100713.03;5052863;28;20261;-73
2022/06/06 07:55:49;;;;;;;8.37;7.67;;;;;;;19.01;70.71;100691.03;5048176;28;20277;-73
2022/06/06 07:58:21;;;;;;;8.13;7.53;;;;;;;19.09;70.75;100675.63;5044837;28;20586;-73
2022/06/06 08:00:58;;;;;;;7.50;6.90;;;;;;;19.12;69.69;100674.59;5047905;28;20283;-73
2022/06/06 08:03:37;;;;;;;7.17;6.57;;;;;;;19.18;69.28;100714.81;5043607;28;20236;-72
2022/06/06 08:06:28;;;;;;;7.53;6.83;;;;;;;19.38;69.03;100731.50;5039763;28;20230;-73
2022/06/06 08:09:07;;;;;;;7.47;6.97;;;;;;;19.28;68.35;100773.44;5038675;28;20200;-73
2022/06/06 08:11:43;;;;;;;6.93;6.43;;;;;;;19.52;69.62;100733.44;5043206;28;20195;-73
2022/06/06 08:14:21;;;;;;;7.80;7.20;;;;;;;19.58;70.08;100704.84;5044626;28;20193;-73
2022/06/06 08:16:54;;;;;;;6.87;6.37;;;;;;;19.44;68.57;100769.13;5044146;28;20196;-73
2022/06/06 08:19:41;;;;;;;7.13;6.53;;;;;;;19.29;68.43;100779.63;5045268;28;20241;-73
2022/06/06 08:22:10;;;;;;;6.07;5.67;;;;;;;19.25;66.91;100779.75;5042426;28;20743;-73
2022/06/06 08:24:41;;;;;;;6.50;6.00;;;;;;;19.15;68.44;100798.81;5040734;28;20278;-73
2022/06/06 08:27:11;;;;;;;5.70;5.30;;;;;;;19.19;67.79;100774.78;5041221;28;20550;-73
2022/06/06 08:29:40;;;;;;;5.90;5.43;;;;;;;19.10;66.91;100806.97;5044190;28;20665;-73
2022/06/06 08:32:07;;;;;;;5.90;5.50;;;;;;;19.04;67.22;100802.81;5049106;28;20208;-73
2022/06/06 08:34:33;;;;;;;5.20;4.80;;;;;;;19.25;67.52;100787.69;5044343;28;20220;-73
2022/06/06 08:37:27;;;;;;;5.77;5.37;;;;;;;19.47;68.80;100762.81;5043167;28;20201;-73
2022/06/06 08:40:10;;;;;;;6.33;5.73;;;;;;;19.64;66.56;100804.28;5042824;28;20209;-73
2022/06/06 08:42:49;;;;;;;5.67;5.13;;;;;;;19.72;66.65;100833.06;5040861;28;20216;-73
2022/06/06 08:45:41;;;;;;;5.60;5.10;;;;;;;19.81;66.79;100814.91;5039672;28;20215;-73
2022/06/06 08:48:17;;;;;;;5.97;5.47;;;;;;;19.92;67.14;100801.13;5045118;28;20197;-73
2022/06/06 08:51:11;;;;;;;5.00;4.60;;;;;;;19.82;64.73;100845.78;5037365;28;20292;-73
2022/06/06 08:54:09;;;;;;;6.23;5.10;;;;;;;19.90;65.62;100855.13;5043553;28;20226;-73
2022/06/06 08:56:50;;;;;;;5.37;4.97;;;;;;;19.93;66.35;100831.13;5042845;28;20289;-73
2022/06/06 08:59:53;;;;;;;5.93;5.50;;;;;;;19.85;66.35;100791.78;5042641;28;20204;-73
2022/06/06 09:02:59;;;;;;;6.20;5.67;;;;;;;19.88;66.43;100810.19;5041614;28;20542;-73
2022/06/06 09:05:49;;;;;;;4.90;4.53;;;;;;;19.93;67.20;100786.09;5043075;28;20230;-73
2022/06/06 09:08:52;;;;;;;5.60;5.13;;;;;;;19.89;64.39;100795.13;5007217;28;20201;-73
2022/06/06 09:11:49;;;;;;;4.73;4.37;;;;;;;20.00;62.40;100896.13;5040670;28;20221;-73
2022/06/06 09:14:57;;;;;;;4.77;4.47;;;;;;;20.26;64.36;100875.34;5044484;28;20197;-73
2022/06/06 09:17:56;;;;;;;4.57;4.27;;;;;;;20.46;61.99;100946.78;5046472;28;20207;-73
2022/06/06 09:20:53;;;;;;;3.80;3.60;;;;;;;20.60;60.70;101020.34;5036880;28;20208;-73
2022/06/06 09:23:49;;;;;;;3.97;3.63;;;;;;;20.69;59.87;101024.31;5044077;28;20249;-73
2022/06/06 09:26:25;;;;;;;3.37;3.17;;;;;;;20.29;58.82;101047.53;5039303;28;20224;-73
2022/06/06 09:29:23;;;;;;;3.70;3.00;;;;;;;20.20;58.35;101070.91;5042212;28;20250;-73
2022/06/06 09:32:27;;;;;;;3.27;3.03;;;;;;;20.36;60.64;101011.84;5046121;28;20192;-73
2022/06/06 09:35:23;;;;;;;3.93;3.63;;;;;;;20.43;58.52;101045.94;5046099;28;20220;-73
2022/06/06 09:38:25;;;;;;;3.40;3.17;;;;;;;20.30;58.29;101066.03;5051098;28;20207;-73
2022/06/06 09:41:09;;;;;;;3.03;2.80;;;;;;;20.55;57.66;101081.53;5044454;28;20238;-73
2022/06/06 09:43:55;;;;;;;3.03;2.73;;;;;;;20.73;56.74;101081.59;5051111;28;20232;-73
2022/06/06 09:47:04;;;;;;;3.20;2.90;;;;;;;20.74;57.32;101121.31;5050846;28;20224;-73
2022/06/06 09:50:23;;;;;;;2.83;2.60;;;;;;;20.96;56.70;101083.06;5050545;28;20647;-73
2022/06/06 09:53:17;;;;;;;3.10;2.90;;;;;;;21.19;55.13;101142.94;5017292;28;20206;-73
2022/06/06 09:59:22;;;;;;;2.57;2.30;;;;;;;20.91;55.28;101164.72;5054513;28;20215;-73
2022/06/06 10:02:25;;;;;;;2.97;2.77;;;;;;;20.72;56.42;101122.34;5054931;28;20199;-73
2022/06/06 10:05:28;;;;;;;2.67;2.47;;;;;;;20.58;56.56;101077.91;5053951;28;20236;-73
2022/06/06 10:08:32;;;;;;;2.57;2.37;;;;;;;20.35;56.87;101108.22;5053460;28;20201;-73
2022/06/06 10:11:46;;;;;;;2.63;2.50;;;;;;;20.42;57.99;101099.88;5053555;28;20204;-73
2022/06/06 10:14:29;;;;;;;2.83;2.30;;;;;;;20.36;58.71;101039.19;4978173;28;20206;-73
2022/06/06 10:17:07;;;;;;;3.10;2.90;;;;;;;20.11;60.84;100981.25;5037962;28;20212;-73
2022/06/06 10:19:46;;;;;;;2.90;2.70;;;;;;;20.20;62.41;100918.97;5054210;28;20262;-72
2022/06/06 10:22:32;;;;;;;3.50;3.30;;;;;;;20.03;63.94;100895.97;5047420;28;20228;-73
2022/06/06 10:25:12;;;;;;;3.73;3.43;;;;;;;20.14;63.83;100853.88;5053388;28;20255;-73
2022/06/06 10:28:05;;;;;;;3.10;2.90;;;;;;;20.18;60.60;100918.19;5054591;28;20224;-73
2022/06/06 10:30:45;;;;;;;3.60;3.30;;;;;;;20.24;58.98;100963.78;5053844;28;20208;-73
2022/06/06 10:33:39;;;;;;;2.73;2.53;;;;;;;20.26;56.74;101026.47;5049728;28;20237;-72
2022/06/06 10:36:20;;;;;;;4.53;3.10;;;;;;;20.69;57.95;101029.63;5053973;28;20661;-73
2022/06/06 10:39:09;;;;;;;2.67;2.47;;;;;;;20.68;54.24;101129.59;5053613;28;20208;-73
2022/06/06 10:41:54;;;;;;;3.33;3.03;;;;;;;20.56;54.43;101157.56;5048431;28;20217;-72
2022/06/06 10:44:43;;;;;;;3.00;2.80;;;;;;;20.68;56.38;101118.13;5046562;28;20228;-72
2022/06/06 10:47:24;;;;;;;2.70;2.50;;;;;;;20.91;54.61;101154.09;5054131;28;20200;-73
2022/06/06 10:50:00;;;;;;;2.63;2.33;;;;;;;20.97;53.63;101183.84;5053696;28;20192;-73
2022/06/06 10:53:05;;;;;;;2.43;2.17;;;;;;;21.20;53.73;101123.41;5046405;28;20199;-73
2022/06/06 10:56:04;;;;;;;2.33;2.13;;;;;;;21.20;51.91;101180.00;5041193;28;20221;-73
2022/06/06 10:59:01;;;;;;;2.77;2.50;;;;;;;21.29;53.15;101193.75;5044553;28;20202;-73
2022/06/06 11:02:06;;;;;;;2.57;2.37;;;;;;;20.96;50.96;101231.72;5045556;28;20221;-73
2022/06/06 11:05:05;;;;;;;2.43;2.30;;;;;;;21.08;51.64;101209.00;5046630;28;20250;-72
2022/06/06 11:08:02;;;;;;;2.10;2.00;;;;;;;21.32;52.22;101215.69;5045797;28;20258;-72
2022/06/06 11:10:53;;;;;;;2.07;1.80;;;;;;;21.57;51.57;101215.31;5044385;28;20201;-72
2022/06/06 11:13:36;;;;;;;1.63;1.53;;;;;;;21.52;47.28;101293.53;5044996;28;20670;-72
2022/06/06 11:16:44;;;;;;;1.60;1.27;;;;;;;21.67;48.30;101337.09;5052429;28;20228;-72
2022/06/06 11:19:49;;;;;;;1.33;1.20;;;;;;;21.49;45.12;101322.94;5049806;28;20255;-72
2022/06/06 11:22:29;;;;;;;1.97;1.57;;;;;;;21.42;47.95;101386.09;5051916;28;20204;-72
2022/06/06 11:25:06;;;;;;;2.20;1.70;;;;;;;21.64;47.09;101337.22;5052891;28;20275;-72
2022/06/06 11:28:07;;;;;;;3.37;1.80;;;;;;;21.84;47.61;101360.97;5053135;28;20203;-72
2022/06/06 11:30:49;;;;;;;2.20;2.00;;;;;;;22.05;47.25;101355.50;5052228;28;20213;-73
2022/06/06 11:33:44;;;;;;;1.97;1.87;;;;;;;22.76;46.85;101344.59;5053017;28;20615;-72
2022/06/06 11:36:35;;;;;;;2.00;1.90;;;;;;;23.31;44.57;101393.91;5049208;28;20225;-73
2022/06/06 11:39:38;;;;;;;1.57;1.47;;;;;;;24.19;41.48;101418.97;5052610;28;20247;-73
2022/06/06 11:42:26;;;;;;;1.73;1.63;;;;;;;23.12;42.90;101509.47;5047678;28;20209;-72
2022/06/06 11:45:23;;;;;;;1.80;1.70;;;;;;;22.96;42.84;101458.81;5052771;28;20228;-73
2022/06/06 11:48:28;;;;;;;2.27;1.80;;;;;;;23.89;42.04;101448.34;5051639;28;20243;-73
2022/06/06 11:51:18;;;;;;;2.00;1.90;;;;;;;22.88;40.83;101487.69;5052829;28;20193;-73
2022/06/06 11:54:28;;;;;;;1.70;1.60;;;;;;;23.59;41.75;101489.13;5052427;28;20610;-73
2022/06/06 11:57:31;;;;;;;2.30;1.30;;;;;;;25.15;38.44;101476.25;5052675;28;20206;-73
2022/06/06 12:00:11;;;;;;;1.23;1.13;;;;;;;25.06;38.26;101548.09;5045008;28;20259;-73
2022/06/06 12:03:05;;;;;;;1.17;1.13;;;;;;;24.69;38.74;101545.84;5051637;28;20201;-72
2022/06/06 12:06:06;;;;;;;1.20;1.20;;;;;;;24.16;38.39;101547.22;5050631;28;20230;-73
2022/06/06 12:08:50;;;;;;;1.20;1.17;;;;;;;24.87;36.39;101509.16;5048193;28;20292;-73
2022/06/06 12:11:48;;;;;;;1.50;1.40;;;;;;;25.58;37.16;101543.97;5045836;28;20196;-73
2022/06/06 12:14:47;;;;;;;1.20;1.10;;;;;;;25.25;36.19;101585.25;5052460;28;20251;-73
2022/06/06 12:17:26;;;;;;;1.27;1.10;;;;;;;24.88;34.30;101556.28;5045924;28;20197;-73
2022/06/06 12:20:23;;;;;;;1.33;0.90;;;;;;;25.23;34.54;101553.25;5051686;28;20204;-73
2022/06/06 12:23:01;;;;;;;2.73;1.00;;;;;;;24.70;35.16;101558.28;5052264;28;20611;-73
2022/06/06 12:25:57;;;;;;;0.60;0.60;;;;;;;25.51;33.85;101528.31;5051739;28;20673;-73
2022/06/06 12:28:58;;;;;;;1.47;0.77;;;;;;;26.43;32.98;101561.50;5045715;28;20201;-73
2022/06/06 12:31:46;;;;;;;1.07;0.70;;;;;;;26.84;31.91;101563.19;5049203;28;20255;-74
2022/06/06 12:34:17;;;;;;;0.80;0.80;;;;;;;27.09;33.29;101615.06;5042602;28;20205;-73
2022/06/06 12:36:53;;;;;;;0.90;0.90;;;;;;;27.13;32.06;101550.41;5051726;28;20691;-73
2022/06/06 12:39:30;;;;;;;1.57;1.00;;;;;;;26.21;33.30;101535.34;5044518;28;20263;-73
2022/06/06 12:42:09;;;;;;;1.30;1.20;;;;;;;25.32;35.14;101543.81;5051440;28;20209;-73